Time;durP1;ratioP1;P1;durP2;ratioP2;P2;SDS_P1;SDS_P2;PMS_P1;PMS_P2;Temp;Humidity;BMP_temperature;BMP_pressure;BME280_temperature;BME280_humidity;BME280_pressure;Samples;Min_cycle;Max_cycle;Signal;HPM_P1;HPM_P2
2023/10/14 00:04:42;;;;;;;17.50;9.00;;;;;;;16.40;78.29;97980.96;435447;1250;110959;-42
2023/10/14 00:14:46;;;;;;;20.50;9.70;;;;;;;16.27;78.32;97959.22;435331;1255;107338;-42
2023/10/14 00:24:52;;;;;;;18.60;8.30;;;;;;;16.25;78.58;97955.39;435301;1249;99244;-42
2023/10/14 00:34:55;;;;;;;14.30;8.40;;;;;;;16.24;78.48;97944.69;435213;1254;108088;-42
2023/10/14 00:44:59;;;;;;;14.20;9.30;;;;;;;16.27;78.60;97922.61;435097;1249;394045;-41
2023/10/14 01:35:31;;;;;;;24.50;10.00;;;;;;;15.98;78.73;97837.02;436283;1253;97992;-42
2023/10/14 01:55:43;;;;;;;24.40;11.40;;;;;;;15.80;79.15;97806.80;436248;1261;107022;-43
2023/10/14 02:26:00;;;;;;;25.30;11.20;;;;;;;15.52;79.72;97776.33;436244;1251;98021;-41
2023/10/14 02:36:03;;;;;;;18.50;9.50;;;;;;;15.43;79.83;97755.53;436361;1253;110035;-42
2023/10/14 03:06:18;;;;;;;19.40;8.90;;;;;;;15.50;79.86;97743.41;436426;1252;108252;-43
2023/10/14 03:16:21;;;;;;;16.30;8.30;;;;;;;15.48;79.66;97737.31;436252;1261;97959;-42
2023/10/14 03:46:35;;;;;;;19.90;9.50;;;;;;;15.45;79.46;97709.75;436364;1252;99248;-42
2023/10/14 05:17:28;;;;;;;26.60;14.30;;;;;;;15.74;80.32;97651.60;436403;1248;108045;-41
2023/10/14 05:37:50;;;;;;;20.60;12.50;;;;;;;16.01;80.14;97674.96;436336;1248;108785;-41
2023/10/14 05:47:53;;;;;;;26.90;14.20;;;;;;;16.21;80.07;97652.81;436335;1247;99233;-42
2023/10/14 05:58:00;;;;;;;19.00;12.70;;;;;;;16.50;79.64;97646.35;436288;1251;112188;-41
2023/10/14 06:18:13;;;;;;;20.30;12.70;;;;;;;17.62;78.77;97668.64;436361;1253;99214;-41
2023/10/14 06:28:17;;;;;;;24.00;11.80;;;;;;;17.95;77.32;97645.23;436679;1254;108051;-42
2023/10/14 06:38:22;;;;;;;21.90;14.60;;;;;;;18.05;76.53;97641.00;436248;1248;99327;-42
2023/10/14 06:48:27;;;;;;;20.80;13.60;;;;;;;18.19;76.04;97644.85;436459;1248;111356;-42
2023/10/14 06:58:33;;;;;;;18.10;11.90;;;;;;;18.35;75.53;97649.42;436126;1261;108052;-42
2023/10/14 07:08:36;;;;;;;21.80;12.20;;;;;;;18.86;75.31;97677.70;436375;1248;99709;-42
2023/10/14 07:18:43;;;;;;;24.60;13.20;;;;;;;19.23;74.71;97671.55;436351;1251;108406;-41
2023/10/14 07:28:57;;;;;;;21.80;11.10;;;;;;;19.89;73.32;97668.16;436294;1251;99215;-41
2023/10/14 07:49:07;;;;;;;23.40;11.80;;;;;;;21.41;70.07;97678.52;436364;1261;108287;-42
2023/10/14 08:19:21;;;;;;;18.80;11.80;;;;;;;21.68;67.79;97661.33;436305;1248;98554;-42
2023/10/14 08:29:32;;;;;;;17.10;12.20;;;;;;;21.86;67.10;97661.86;436502;1248;111131;-42
2023/10/14 08:39:36;;;;;;;19.60;11.50;;;;;;;22.02;66.30;97662.48;436343;1251;108190;-40
2023/10/14 08:49:40;;;;;;;13.60;11.10;;;;;;;22.54;66.54;97673.02;436400;1247;99333;-41
2023/10/14 09:19:53;;;;;;;18.10;10.90;;;;;;;22.70;64.66;97657.72;436514;1251;112229;-41
2023/10/14 09:29:57;;;;;;;19.20;10.10;;;;;;;23.01;63.55;97659.43;436379;1248;108562;-40
2023/10/14 09:50:13;;;;;;;13.40;9.60;;;;;;;23.15;62.59;97664.58;436417;1247;107926;-41
2023/10/14 10:30:30;;;;;;;24.30;12.40;;;;;;;21.32;63.67;97648.84;436313;1247;99620;-42
2023/10/14 10:40:33;;;;;;;17.80;12.10;;;;;;;21.32;63.75;97636.19;436400;1251;108868;-41
2023/10/14 10:50:49;;;;;;;18.50;11.70;;;;;;;21.44;63.65;97634.46;436378;1247;97953;-41
2023/10/14 11:00:54;;;;;;;19.50;12.60;;;;;;;21.47;63.40;97642.27;436475;1250;112417;-42
2023/10/14 11:11:01;;;;;;;16.10;11.70;;;;;;;21.50;63.51;97645.29;436372;1251;108116;-42
2023/10/14 11:21:05;;;;;;;22.20;12.00;;;;;;;21.56;63.72;97644.54;436368;1251;99212;-42
2023/10/14 11:31:09;;;;;;;17.10;11.10;;;;;;;21.57;63.92;97640.04;436294;1247;108124;-41
2023/10/14 11:41:13;;;;;;;23.90;11.90;;;;;;;21.32;63.92;97640.98;436359;1253;99211;-42
2023/10/14 11:51:20;;;;;;;18.70;12.20;;;;;;;21.32;64.05;97643.13;436440;1247;112249;-42
2023/10/14 12:01:24;;;;;;;15.00;11.20;;;;;;;21.62;63.80;97649.03;436296;1251;108094;-42
2023/10/14 12:11:28;;;;;;;20.00;11.40;;;;;;;21.51;63.55;97646.71;436497;1247;98005;-42
2023/10/14 12:21:35;;;;;;;18.30;10.90;;;;;;;21.70;63.72;97650.08;436320;1247;108735;-42
2023/10/14 12:41:49;;;;;;;19.30;12.40;;;;;;;21.45;63.42;97649.80;435914;1251;511224;-41
2023/10/14 12:51:58;;;;;;;16.90;11.70;;;;;;;21.31;63.74;97648.20;436335;1247;105742;-42
2023/10/14 13:02:08;;;;;;;23.40;12.40;;;;;;;21.32;63.80;97641.76;436337;1251;98009;-43
2023/10/14 13:22:21;;;;;;;18.90;12.80;;;;;;;20.91;64.35;97641.67;436428;1247;99062;-42
2023/10/14 13:32:25;;;;;;;20.20;11.70;;;;;;;20.71;64.84;97639.29;436308;1247;113793;-41
2023/10/14 13:42:29;;;;;;;18.50;11.60;;;;;;;20.63;65.10;97641.40;436239;1251;107504;-42
2023/10/14 13:52:33;;;;;;;21.10;12.70;;;;;;;20.66;65.49;97637.73;436455;1247;99125;-42
2023/10/14 14:02:36;;;;;;;20.00;12.70;;;;;;;20.52;65.68;97649.08;436433;1251;107539;-43
2023/10/14 14:12:42;;;;;;;9.50;5.30;;;;;;;20.23;65.71;97696.23;436390;1247;99122;-42
2023/10/14 14:22:46;;;;;;;13.50;5.30;;;;;;;18.64;67.23;97764.89;436262;1247;111033;-42
2023/10/14 14:42:58;;;;;;;14.00;6.50;;;;;;;17.04;71.17;97772.40;436389;1251;99359;-42
2023/10/14 14:53:02;;;;;;;8.30;1.90;;;;;;;16.67;73.57;97790.80;436109;1251;108152;-42
2023/10/14 15:23:17;;;;;;;2.30;1.70;;;;;;;15.38;76.89;97839.27;436242;1251;107785;-43
2023/10/14 15:33:24;;;;;;;3.90;2.80;;;;;;;15.15;76.94;97845.11;436298;1251;99241;-43
2023/10/14 15:53:31;;;;;;;5.20;2.90;;;;;;;14.95;78.26;97876.77;436250;1250;101398;-42
2023/10/14 16:03:34;;;;;;;2.40;1.90;;;;;;;14.48;78.88;97905.45;436480;1247;111524;-44
2023/10/14 16:43:46;;;;;;;6.20;3.30;;;;;;;13.26;78.47;97945.61;436359;1252;99097;-43
2023/10/14 17:03:59;;;;;;;7.60;3.30;;;;;;;12.93;78.77;97974.11;436366;1251;110775;-42
2023/10/14 17:14:07;;;;;;;6.60;4.30;;;;;;;12.94;79.12;97988.80;436473;1253;99234;-42
2023/10/14 17:34:20;;;;;;;35.00;21.10;;;;;;;12.90;79.45;98004.35;436386;1254;99215;-42
2023/10/14 17:44:24;;;;;;;28.20;18.20;;;;;;;12.85;79.68;98020.14;436297;1251;111200;-43
2023/10/14 17:54:28;;;;;;;13.10;7.00;;;;;;;12.73;79.87;98012.44;436352;1247;109095;-42
2023/10/14 18:24:39;;;;;;;6.10;3.60;;;;;;;12.70;80.41;98047.17;436323;1263;99339;-42
2023/10/14 18:34:44;;;;;;;14.30;3.50;;;;;;;12.69;80.59;98027.65;436216;1252;111092;-41
2023/10/14 18:44:47;;;;;;;14.50;4.80;;;;;;;12.67;80.57;98004.52;436391;1247;107634;-42
2023/10/14 18:54:50;;;;;;;8.60;4.30;;;;;;;12.59;80.58;98030.05;436315;1247;99346;-41
2023/10/14 19:04:55;;;;;;;11.50;6.10;;;;;;;12.50;80.80;98039.43;436407;1251;107313;-42
2023/10/14 19:35:08;;;;;;;5.40;3.00;;;;;;;12.68;81.10;98048.39;436411;1252;108443;-42
2023/10/14 19:45:12;;;;;;;6.80;4.00;;;;;;;12.63;81.24;98071.92;436472;1247;97980;-42
2023/10/14 20:05:24;;;;;;;11.30;4.70;;;;;;;12.59;81.64;98082.08;436268;1263;99241;-42
2023/10/14 20:15:28;;;;;;;6.00;3.30;;;;;;;12.60;81.45;98063.20;436284;1251;111618;-42
2023/10/14 20:25:32;;;;;;;7.60;3.50;;;;;;;12.48;81.38;98054.95;436287;1248;107501;-43
2023/10/14 20:45:44;;;;;;;7.70;4.10;;;;;;;12.29;81.49;98098.88;436271;1253;107706;-43
2023/10/14 20:55:47;;;;;;;12.20;4.40;;;;;;;12.13;81.68;98120.13;436371;1254;99218;-43
2023/10/14 21:05:52;;;;;;;14.90;3.80;;;;;;;12.12;81.84;98120.70;436342;1248;111986;-42
2023/10/14 21:16:00;;;;;;;8.70;4.20;;;;;;;12.06;81.88;98134.05;436338;1248;106607;-42
2023/10/14 21:26:04;;;;;;;8.00;4.40;;;;;;;11.95;81.89;98149.41;436426;1247;99251;-42
2023/10/14 21:46:16;;;;;;;8.30;3.10;;;;;;;11.65;81.75;98142.91;436331;1247;99235;-43
2023/10/14 21:56:20;;;;;;;6.60;2.60;;;;;;;11.43;81.82;98155.54;436413;1252;110849;-43
2023/10/14 22:06:24;;;;;;;7.60;3.00;;;;;;;11.30;82.12;98169.08;436331;1247;108603;-42
2023/10/14 22:16:27;;;;;;;17.70;5.60;;;;;;;11.28;82.06;98163.60;436386;1251;99214;-41
2023/10/14 22:26:32;;;;;;;10.30;5.00;;;;;;;11.23;82.16;98168.09;436319;1261;107632;-42
2023/10/14 22:36:42;;;;;;;10.30;3.00;;;;;;;11.05;82.08;98179.28;436170;1247;99276;-41
2023/10/14 22:56:49;;;;;;;11.90;3.70;;;;;;;10.68;81.75;98188.89;436193;1253;107465;-42
2023/10/14 23:06:53;;;;;;;10.10;3.40;;;;;;;10.47;81.84;98201.92;436274;1261;99343;-41
2023/10/14 23:17:01;;;;;;;10.10;4.10;;;;;;;10.39;82.06;98212.67;436360;1251;108510;-42
2023/10/14 23:37:10;;;;;;;7.00;3.30;;;;;;;10.36;82.24;98208.91;436242;1252;111880;-41
2023/10/14 23:47:18;;;;;;;10.50;3.30;;;;;;;10.21;82.03;98200.52;436350;1248;108415;-42
2023/10/14 23:57:22;;;;;;;12.30;3.40;;;;;;;10.00;81.89;98223.42;436246;1253;99208;-42
